Main page
METAR-TAF:

METAR-TAF

Airports :

RAF Shawbury

Shawbury, England

latitude: 52-48N, longitude: 002-40W, elevation: 76 m

Current weather observation

The report was made 1 hour and 6 minutes ago, at 22:50 UTC
Wind 6 kt from the South
Temperature 9°C
Humidity 93%
Pressure 1028 hPa
Visibility 10 km or more
Few clouds at a height of 2000 ft
Broken clouds at a height of 2800 ft

METAR: EGOS 192250Z 19006KT 9999 FEW020 BKN028 09/08 Q1028 BLU TEMPO SCT020 WHT

Time: 23:56 (23:56 UTC)

Forecast

The report was made 4 hours and 7 minutes ago, at 19:49 UTC
Forecast valid from 19 at 21 UTC to 20 at 01 UTC
Wind 7 kt from the West/Southwest
Visibility 10 km or more
Broken clouds at a height of 3000 ft
Becoming
from 19 at 21 UTC to 19 at 23 UTC
Broken clouds at a height of 1800 ft
Temporary
from 19 at 22 UTC to 20 at 01 UTC
Scattered clouds at a height of 1000 ft

TAF: EGOS 191949Z 1921/2001 24007KT 9999 BKN030 BECMG 1921/1923 BKN018 TEMPO 1922/2001 SCT010

Weather observations and forecasts of more than 4000 airports (METAR and TAF reports).

The available stations are represented by yellow and red dots on the map.

Hover mouse over dot to see the name of the station.

Then click to see weather observations and forecasts.

To change the map : click on the green buttons with a black cross to zoom in, on the green button with a dash to zoom out, or on the green arrows for adjacent maps.


METAR-TAF: